Chatuge Observed Data For Previous 48 Hours

Caption
Day and Hour Reservoir Elevation (behind dam)* Tailwater Elevation (below dam)* Average Hourly Discharge*
6/20/2018 2 AM EDT 1,925.54 1,802.89 0
6/20/2018 3 AM EDT 1,925.54 1,802.60 0
6/20/2018 4 AM EDT 1,925.54 1,802.38 0
6/20/2018 5 AM EDT 1,925.55 1,802.38 0
6/20/2018 6 AM EDT 1,925.56 1,803.57 20
6/20/2018 7 AM EDT 1,925.56 1,804.29 752
6/20/2018 8 AM EDT 1,925.56 1,803.39 0
6/20/2018 9 AM EDT 1,925.57 1,803.06 0
6/20/2018 10 AM EDT 1,925.57 1,802.76 0
6/20/2018 11 AM EDT 1,925.58 1,802.46 0
6/20/2018 12 PM EDT 1,925.58 1,803.84 31
6/20/2018 1 PM EDT 1,925.58 1,805.63 1,135
6/20/2018 2 PM EDT 1,925.58 1,805.74 1,130
6/20/2018 3 PM EDT 1,925.56 1,805.72 1,128
6/20/2018 4 PM EDT 1,925.55 1,805.71 1,118
6/20/2018 5 PM EDT 1,925.54 1,805.67 1,113
6/20/2018 6 PM EDT 1,925.53 1,805.71 1,124
6/20/2018 7 PM EDT 1,925.52 1,805.67 1,124
6/20/2018 8 PM EDT 1,925.51 1,805.73 1,123
6/20/2018 9 PM EDT 1,925.50 1,805.69 1,125
6/20/2018 10 PM EDT 1,925.49 1,805.72 1,122
6/20/2018 11 PM EDT 1,925.49 1,803.57 29
6/21/2018 12 AM EDT 1,925.49 1,803.20 0
6/21/2018 1 AM EDT 1,925.49 1,802.89 0
6/21/2018 2 AM EDT 1,925.49 1,802.59 0
6/21/2018 3 AM EDT 1,925.50 1,802.38 0
6/21/2018 4 AM EDT 1,925.50 1,802.37 0
6/21/2018 5 AM EDT 1,925.51 1,802.37 0
6/21/2018 6 AM EDT 1,925.52 1,803.61 37
6/21/2018 7 AM EDT 1,925.52 1,804.28 752
6/21/2018 8 AM EDT 1,925.52 1,803.38 0
6/21/2018 9 AM EDT 1,925.52 1,803.06 0
6/21/2018 10 AM EDT 1,925.52 1,802.75 0
6/21/2018 11 AM EDT 1,925.52 1,802.46 0
6/21/2018 12 PM EDT 1,925.54 1,803.79 31
6/21/2018 1 PM EDT 1,925.54 1,805.58 1,124
6/21/2018 2 PM EDT 1,925.53 1,805.74 1,120
6/21/2018 3 PM EDT 1,925.52 1,805.76 1,118
6/21/2018 4 PM EDT 1,925.51 1,805.71 1,123
6/21/2018 5 PM EDT 1,925.50 1,805.65 1,121
6/21/2018 6 PM EDT 1,925.49 1,805.77 1,124
6/21/2018 7 PM EDT 1,925.48 1,805.69 1,120
6/21/2018 8 PM EDT 1,925.48 1,805.66 1,122
6/21/2018 9 PM EDT 1,925.47 1,805.66 1,123
6/21/2018 10 PM EDT 1,925.46 1,805.69 1,122
6/21/2018 11 PM EDT 1,925.46 1,803.58 28
6/22/2018 12 AM EDT 1,925.46 1,803.20 0
6/22/2018 1 AM EDT 1,925.46 1,802.89 0

Elevations are in feet above sea level. Discharges are in cubic feet per second and are reported at the end of the hour.